createdAt,value
2018-05-31T00:01:04.591Z,92.00
2018-05-31T00:03:34.012Z,92.79
2018-05-31T00:06:04.190Z,92.82
2018-05-31T00:08:33.598Z,92.49
2018-05-31T00:11:02.598Z,92.63
2018-05-31T00:13:31.996Z,92.62
2018-05-31T00:16:01.242Z,92.77
2018-05-31T00:18:29.849Z,92.94
2018-05-31T00:20:58.491Z,93.30
2018-05-31T00:23:28.074Z,93.44
2018-05-31T00:25:56.890Z,93.56
2018-05-31T00:28:25.705Z,93.58
2018-05-31T00:30:54.500Z,93.56
2018-05-31T00:33:23.748Z,93.37
2018-05-31T00:35:53.048Z,93.07
2018-05-31T00:38:22.470Z,92.77
2018-05-31T00:40:51.095Z,92.26
2018-05-31T00:43:19.895Z,91.80
2018-05-31T00:45:48.705Z,91.51
2018-05-31T00:48:17.255Z,91.47
2018-05-31T00:50:46.042Z,91.70
2018-05-31T00:53:14.883Z,91.41
2018-05-31T00:56:02.175Z,91.28
2018-05-31T00:58:31.151Z,91.19
2018-05-31T01:00:59.732Z,91.08
2018-05-31T01:03:29.407Z,91.28
2018-05-31T01:05:58.312Z,91.69
2018-05-31T01:08:27.133Z,92.05
2018-05-31T01:10:55.894Z,92.25
2018-05-31T01:13:25.654Z,92.61
2018-05-31T01:15:54.473Z,92.93
2018-05-31T01:18:23.427Z,92.98
2018-05-31T01:20:52.361Z,93.01
2018-05-31T01:23:23.044Z,93.16
2018-05-31T01:25:53.356Z,93.19
2018-05-31T01:28:22.208Z,93.40
2018-05-31T01:30:51.016Z,93.46
2018-05-31T01:33:19.928Z,93.44
2018-05-31T01:35:48.628Z,93.40
2018-05-31T01:38:32.588Z,93.31
2018-05-31T01:41:02.125Z,93.08
2018-05-31T01:43:31.561Z,92.92
2018-05-31T01:46:00.240Z,92.94
2018-05-31T01:48:28.987Z,92.88
2018-05-31T01:50:59.143Z,92.93
2018-05-31T01:53:28.609Z,92.92
2018-05-31T01:55:58.191Z,92.76
2018-05-31T01:58:28.159Z,92.88
2018-05-31T02:00:56.928Z,92.89
2018-05-31T02:03:26.474Z,92.83
2018-05-31T02:05:55.928Z,92.93
2018-05-31T02:08:25.608Z,92.81
2018-05-31T02:10:55.101Z,92.69
2018-05-31T02:13:23.817Z,92.75
2018-05-31T02:15:52.822Z,92.71
2018-05-31T02:18:21.571Z,92.74
2018-05-31T02:20:50.341Z,92.64
2018-05-31T02:23:19.150Z,92.45
2018-05-31T02:25:48.699Z,92.65
2018-05-31T02:28:18.292Z,92.98
2018-05-31T02:30:46.933Z,93.12
2018-05-31T02:33:15.708Z,93.13
2018-05-31T02:35:44.260Z,93.35
2018-05-31T02:38:13.653Z,93.59
2018-05-31T02:40:43.134Z,93.73
2018-05-31T02:43:12.469Z,93.59
2018-05-31T02:45:41.801Z,93.57
2018-05-31T02:48:10.381Z,93.56
2018-05-31T02:50:39.739Z,93.83
2018-05-31T02:53:08.531Z,93.99
2018-05-31T02:55:37.369Z,94.10
2018-05-31T02:58:06.380Z,93.93
2018-05-31T03:00:35.068Z,93.98
2018-05-31T03:03:03.639Z,94.03
2018-05-31T03:05:33.120Z,93.96
2018-05-31T03:08:02.344Z,93.94
2018-05-31T03:10:31.659Z,94.07
2018-05-31T03:13:00.665Z,94.16
2018-05-31T03:15:29.479Z,94.30
2018-05-31T03:17:58.301Z,94.35
2018-05-31T03:20:27.689Z,94.36
2018-05-31T03:22:56.263Z,94.17
2018-05-31T03:25:25.136Z,94.04
2018-05-31T03:27:54.052Z,93.94
2018-05-31T03:30:22.751Z,93.66
2018-05-31T03:32:52.748Z,93.73
2018-05-31T03:35:22.227Z,93.74
2018-05-31T03:37:51.235Z,93.62
2018-05-31T03:40:20.847Z,93.33
2018-05-31T03:42:49.905Z,93.39
2018-05-31T03:45:18.659Z,93.53
2018-05-31T03:47:47.256Z,93.87
2018-05-31T03:50:15.900Z,93.90
2018-05-31T03:52:44.601Z,94.04
2018-05-31T03:55:13.404Z,94.18
2018-05-31T03:57:42.138Z,94.44
2018-05-31T04:00:10.839Z,94.81
2018-05-31T04:02:39.649Z,94.82
2018-05-31T04:05:08.651Z,94.69
2018-05-31T04:07:37.215Z,94.64
2018-05-31T04:10:07.203Z,94.34
2018-05-31T04:12:36.785Z,94.49
2018-05-31T04:15:06.284Z,94.43
2018-05-31T04:17:35.067Z,94.24
2018-05-31T04:20:03.865Z,93.79
2018-05-31T04:22:32.689Z,93.70
2018-05-31T04:25:01.474Z,93.33
2018-05-31T04:27:30.317Z,93.29
2018-05-31T04:29:58.905Z,92.45
2018-05-31T04:32:27.717Z,92.29
2018-05-31T04:34:56.540Z,92.17
2018-05-31T04:37:25.280Z,91.94
2018-05-31T04:39:55.644Z,91.66
2018-05-31T04:42:25.683Z,91.34
2018-05-31T04:44:54.656Z,91.12
2018-05-31T04:47:23.210Z,91.25
2018-05-31T04:49:51.911Z,91.09
2018-05-31T04:52:20.468Z,91.60
2018-05-31T04:54:49.200Z,91.59
2018-05-31T04:57:18.678Z,91.98
2018-05-31T04:59:47.277Z,91.42
2018-05-31T05:02:16.004Z,91.00
2018-05-31T05:04:46.857Z,91.33
2018-05-31T05:07:15.508Z,90.73
2018-05-31T05:09:44.739Z,89.56
2018-05-31T05:12:14.192Z,88.87
2018-05-31T05:14:44.197Z,87.81
2018-05-31T05:17:13.748Z,87.02
2018-05-31T05:19:42.299Z,86.19
2018-05-31T05:22:11.496Z,86.17
2018-05-31T05:24:40.362Z,85.62
2018-05-31T05:27:09.835Z,84.66
2018-05-31T05:29:39.053Z,84.73
2018-05-31T05:32:07.864Z,84.57
2018-05-31T05:34:36.691Z,84.52
2018-05-31T05:37:05.549Z,83.55
2018-05-31T05:39:34.316Z,83.44
2018-05-31T05:42:03.515Z,82.93
2018-05-31T05:44:33.440Z,82.95
2018-05-31T05:47:02.780Z,83.21
2018-05-31T05:49:31.465Z,83.08
2018-05-31T05:52:00.398Z,82.64
2018-05-31T05:54:28.952Z,82.43
2018-05-31T05:56:58.634Z,82.20
2018-05-31T05:59:27.210Z,81.61
2018-05-31T06:01:56.019Z,80.81
2018-05-31T06:04:24.618Z,80.66
2018-05-31T06:06:54.190Z,80.35
2018-05-31T06:09:22.990Z,78.55
2018-05-31T06:11:52.104Z,74.62
2018-05-31T06:14:21.976Z,72.29
2018-05-31T06:16:51.776Z,70.70
2018-05-31T06:19:20.788Z,67.93
2018-05-31T06:21:50.589Z,66.03
2018-05-31T06:24:19.305Z,65.78
2018-05-31T06:26:48.111Z,64.76
2018-05-31T06:29:17.562Z,64.75
2018-05-31T06:31:46.240Z,66.93
2018-05-31T06:34:14.842Z,68.64
2018-05-31T06:36:43.457Z,63.57
2018-05-31T06:39:13.121Z,61.50
2018-05-31T06:41:43.092Z,58.80
2018-05-31T06:44:12.208Z,57.68
2018-05-31T06:46:42.162Z,57.56
2018-05-31T06:49:11.578Z,56.57
2018-05-31T06:51:41.007Z,55.66
2018-05-31T06:54:10.566Z,54.93
2018-05-31T06:56:39.383Z,54.11
2018-05-31T06:59:08.004Z,54.63
2018-05-31T07:01:37.614Z,54.92
2018-05-31T07:04:06.433Z,54.42
2018-05-31T07:06:35.143Z,54.38
2018-05-31T07:09:04.055Z,53.17
2018-05-31T07:11:33.168Z,53.09
2018-05-31T07:14:03.363Z,50.44
2018-05-31T07:16:33.037Z,49.42
2018-05-31T07:19:03.976Z,48.14
2018-05-31T07:21:36.253Z,49.50
2018-05-31T07:24:05.816Z,46.97
2018-05-31T07:26:35.048Z,47.80
2018-05-31T07:29:04.540Z,46.48
2018-05-31T07:31:33.265Z,47.82
2018-05-31T07:34:02.057Z,49.21
2018-05-31T07:36:31.770Z,47.59
2018-05-31T07:39:01.520Z,45.59
2018-05-31T07:41:30.597Z,45.16
2018-05-31T07:43:59.567Z,45.51
2018-05-31T07:46:29.617Z,45.41
2018-05-31T07:48:58.714Z,45.58
2018-05-31T07:51:27.742Z,44.27
2018-05-31T07:53:56.952Z,43.65
2018-05-31T07:56:25.711Z,44.18
2018-05-31T07:58:55.187Z,43.25
2018-05-31T08:01:24.105Z,42.19
2018-05-31T08:03:53.016Z,42.08
2018-05-31T08:06:22.244Z,41.25
2018-05-31T08:08:52.016Z,41.04
2018-05-31T08:11:22.032Z,39.70
2018-05-31T08:13:51.635Z,38.80
2018-05-31T08:16:20.446Z,39.02
2018-05-31T08:18:50.083Z,39.36
2018-05-31T08:21:18.882Z,38.19
2018-05-31T08:23:49.328Z,37.77
2018-05-31T08:26:17.934Z,37.52
2018-05-31T08:28:47.601Z,39.76
2018-05-31T08:31:16.477Z,39.82
2018-05-31T08:33:45.252Z,35.10
2018-05-31T08:36:15.755Z,35.33
2018-05-31T08:38:44.955Z,35.78
2018-05-31T08:41:13.828Z,38.88
2018-05-31T08:43:43.597Z,34.83
2018-05-31T08:46:13.713Z,35.24
2018-05-31T08:48:43.308Z,34.61
2018-05-31T08:51:12.184Z,33.78
2018-05-31T08:53:41.089Z,32.15
2018-05-31T08:56:10.012Z,33.11
2018-05-31T08:58:38.872Z,30.08
2018-05-31T09:01:08.340Z,27.84
2018-05-31T09:03:37.154Z,30.07
2018-05-31T09:06:06.702Z,28.12
2018-05-31T09:08:37.354Z,27.94
2018-05-31T09:11:06.343Z,26.33
2018-05-31T09:13:35.637Z,25.17
2018-05-31T09:16:05.454Z,25.54
2018-05-31T09:18:35.066Z,29.87
2018-05-31T09:21:03.933Z,28.75
2018-05-31T09:23:32.837Z,26.58
2018-05-31T09:26:01.981Z,28.81
2018-05-31T09:28:31.658Z,29.96
2018-05-31T09:31:00.917Z,25.87
2018-05-31T09:33:30.377Z,23.78
2018-05-31T09:35:59.815Z,21.70
2018-05-31T09:38:29.185Z,23.46
2018-05-31T09:40:58.884Z,24.23
2018-05-31T09:43:28.397Z,25.08
2018-05-31T09:45:57.142Z,25.61
2018-05-31T09:48:26.862Z,25.01
2018-05-31T09:50:55.488Z,25.43
2018-05-31T09:53:24.651Z,24.83
2018-05-31T09:55:53.988Z,23.22
2018-05-31T09:58:24.621Z,23.19
2018-05-31T10:00:55.027Z,23.25
2018-05-31T10:03:24.825Z,23.02
2018-05-31T10:05:54.329Z,23.10
2018-05-31T10:08:24.743Z,26.19
2018-05-31T10:10:53.574Z,27.92
2018-05-31T10:13:22.365Z,25.66
2018-05-31T10:15:51.163Z,25.51
2018-05-31T10:18:20.106Z,27.37
2018-05-31T10:20:49.740Z,28.02
2018-05-31T10:23:18.867Z,28.98
2018-05-31T10:25:48.092Z,29.60
2018-05-31T10:28:17.668Z,30.37
2018-05-31T10:30:46.991Z,27.01
2018-05-31T10:33:16.445Z,25.69
2018-05-31T10:35:45.618Z,24.72
2018-05-31T10:38:14.285Z,23.53
2018-05-31T10:40:43.859Z,25.11
2018-05-31T10:43:14.314Z,30.52
2018-05-31T10:45:43.027Z,32.68
2018-05-31T10:48:12.767Z,30.39
2018-05-31T10:50:42.380Z,29.80
2018-05-31T10:53:11.906Z,28.92
2018-05-31T10:55:42.091Z,26.94
2018-05-31T10:58:13.519Z,30.06
2018-05-31T11:00:42.990Z,28.55
2018-05-31T11:03:11.795Z,30.67
2018-05-31T11:05:40.569Z,29.17
2018-05-31T11:08:09.375Z,28.25
2018-05-31T11:10:38.091Z,29.14
2018-05-31T11:13:06.962Z,25.89
2018-05-31T11:15:37.577Z,25.74
2018-05-31T11:18:06.353Z,28.18
2018-05-31T11:20:35.028Z,25.97
2018-05-31T11:23:05.092Z,26.04
2018-05-31T11:25:33.829Z,25.80
2018-05-31T11:28:02.945Z,27.63
2018-05-31T11:30:32.260Z,26.71
2018-05-31T11:33:01.575Z,27.30
2018-05-31T11:35:30.586Z,27.10
2018-05-31T11:37:59.555Z,30.34
2018-05-31T11:40:29.386Z,28.27
2018-05-31T11:42:59.166Z,31.42
2018-05-31T11:45:27.896Z,29.83
2018-05-31T11:47:57.384Z,28.15
2018-05-31T11:50:26.304Z,27.14
2018-05-31T11:52:56.990Z,26.83
2018-05-31T11:55:25.754Z,28.91
2018-05-31T11:57:56.125Z,28.65
2018-05-31T12:00:25.678Z,27.46
2018-05-31T12:02:54.515Z,29.23
2018-05-31T12:05:23.980Z,28.45
2018-05-31T12:07:52.843Z,25.20
2018-05-31T12:10:23.520Z,24.91
2018-05-31T12:12:53.653Z,28.12
2018-05-31T12:15:23.307Z,25.22
2018-05-31T12:17:52.375Z,24.12
2018-05-31T12:20:21.442Z,24.46
2018-05-31T12:22:51.215Z,24.77
2018-05-31T12:25:21.401Z,24.98
2018-05-31T12:27:50.748Z,23.74
2018-05-31T12:30:20.609Z,23.95
2018-05-31T12:32:49.995Z,23.05
2018-05-31T12:35:18.811Z,22.57
2018-05-31T12:37:47.710Z,22.61
2018-05-31T12:40:17.889Z,27.53
2018-05-31T12:42:47.751Z,27.24
2018-05-31T12:45:17.367Z,28.59
2018-05-31T12:47:46.134Z,27.96
2018-05-31T12:50:15.525Z,28.30
2018-05-31T12:52:46.607Z,26.93
2018-05-31T12:55:16.580Z,28.54
2018-05-31T12:57:45.393Z,29.24
2018-05-31T13:00:14.993Z,28.09
2018-05-31T13:02:43.965Z,30.86
2018-05-31T13:05:12.747Z,31.09
2018-05-31T13:07:41.523Z,28.17
2018-05-31T13:10:11.559Z,28.21
2018-05-31T13:12:40.340Z,29.52
2018-05-31T13:15:10.475Z,28.11
2018-05-31T13:17:41.194Z,27.36
2018-05-31T13:20:11.208Z,30.19
2018-05-31T13:22:40.865Z,28.53
2018-05-31T13:25:09.970Z,27.03
2018-05-31T13:27:38.859Z,25.88
2018-05-31T13:30:08.835Z,24.77
2018-05-31T13:32:37.609Z,24.84
2018-05-31T13:35:06.516Z,25.59
2018-05-31T13:37:35.127Z,25.34
2018-05-31T13:40:03.805Z,26.14
2018-05-31T13:42:35.169Z,25.84
2018-05-31T13:45:04.740Z,27.45
2018-05-31T13:47:33.755Z,29.30
2018-05-31T13:50:03.018Z,28.20
2018-05-31T13:52:33.496Z,29.44
2018-05-31T13:55:02.421Z,28.04
2018-05-31T13:57:31.938Z,30.05
2018-05-31T14:00:01.789Z,28.69
2018-05-31T14:02:30.548Z,30.81
2018-05-31T14:04:59.311Z,30.74
2018-05-31T14:07:28.199Z,33.90
2018-05-31T14:09:57.077Z,32.46
2018-05-31T14:12:25.889Z,32.45
2018-05-31T14:14:55.258Z,34.99
2018-05-31T14:17:24.171Z,32.67
2018-05-31T14:19:59.533Z,30.06
2018-05-31T14:22:28.319Z,29.38
2018-05-31T14:24:58.079Z,30.81
2018-05-31T14:27:27.135Z,29.91
2018-05-31T14:29:56.571Z,33.00
2018-05-31T14:32:26.867Z,31.24
2018-05-31T14:34:56.412Z,31.53
2018-05-31T14:37:25.303Z,32.71
2018-05-31T14:39:54.227Z,34.79
2018-05-31T14:42:23.055Z,34.97
2018-05-31T14:44:53.166Z,35.24
2018-05-31T14:47:23.823Z,35.14
2018-05-31T14:49:53.115Z,34.24
2018-05-31T14:52:22.635Z,34.04
2018-05-31T14:54:52.648Z,37.04
2018-05-31T14:57:24.458Z,36.27
2018-05-31T14:59:54.374Z,37.46
2018-05-31T15:02:24.115Z,38.16
2018-05-31T15:04:52.964Z,38.37
2018-05-31T15:07:22.105Z,39.48
2018-05-31T15:09:52.607Z,37.04
2018-05-31T15:12:22.728Z,36.94
2018-05-31T15:14:52.590Z,37.31
2018-05-31T15:17:21.459Z,36.59
2018-05-31T15:19:51.169Z,37.72
2018-05-31T15:22:21.175Z,39.33
2018-05-31T15:24:50.558Z,41.27
2018-05-31T15:27:21.036Z,40.75
2018-05-31T15:29:51.595Z,40.29
2018-05-31T15:32:20.330Z,39.89
2018-05-31T15:34:49.168Z,41.81
2018-05-31T15:37:19.589Z,41.44
2018-05-31T15:39:49.789Z,42.82
2018-05-31T15:42:18.652Z,43.79
2018-05-31T15:44:48.924Z,42.96
2018-05-31T15:47:18.085Z,40.72
2018-05-31T15:49:47.080Z,42.49
2018-05-31T15:52:17.006Z,43.56
2018-05-31T15:54:45.820Z,42.57
2018-05-31T15:57:16.227Z,43.96
2018-05-31T15:59:45.781Z,43.06
2018-05-31T16:02:15.053Z,44.24
2018-05-31T16:04:45.034Z,44.99
2018-05-31T16:07:14.844Z,45.00
2018-05-31T16:09:45.486Z,45.97
2018-05-31T16:12:15.425Z,46.73
2018-05-31T16:14:45.000Z,47.81
2018-05-31T16:17:14.245Z,47.60
2018-05-31T16:19:43.528Z,47.98
2018-05-31T16:22:12.426Z,48.39
2018-05-31T16:24:41.927Z,47.27
2018-05-31T16:27:12.453Z,47.02
2018-05-31T16:29:41.897Z,47.44
2018-05-31T16:32:12.952Z,48.94
2018-05-31T16:34:43.264Z,49.73
2018-05-31T16:37:12.617Z,50.05
2018-05-31T16:39:42.334Z,50.79
2018-05-31T16:42:11.810Z,49.87
2018-05-31T16:44:40.903Z,50.37
2018-05-31T16:47:12.781Z,50.28
2018-05-31T16:49:41.644Z,51.00
2018-05-31T16:52:10.908Z,50.97
2018-05-31T16:54:40.000Z,51.72
2018-05-31T16:57:09.055Z,52.45
2018-05-31T16:59:39.293Z,52.78
2018-05-31T17:02:08.901Z,52.80
2018-05-31T17:04:38.422Z,53.60
2018-05-31T17:07:07.578Z,54.16
2018-05-31T17:09:37.120Z,53.07
2018-05-31T17:12:06.865Z,53.72
2018-05-31T17:14:38.788Z,54.05
2018-05-31T17:17:07.723Z,53.95
2018-05-31T17:19:37.586Z,53.55
2018-05-31T17:22:08.082Z,54.63
2018-05-31T17:24:38.187Z,53.78
2018-05-31T17:27:07.675Z,53.52
2018-05-31T17:29:36.785Z,53.69
2018-05-31T17:32:06.376Z,53.21
2018-05-31T17:34:35.670Z,53.38
2018-05-31T17:37:04.608Z,53.06
2018-05-31T17:39:33.779Z,52.14
2018-05-31T17:42:02.508Z,52.44
2018-05-31T17:44:31.430Z,51.40
2018-05-31T17:47:00.491Z,51.96
2018-05-31T17:49:30.217Z,51.01
2018-05-31T17:51:59.394Z,51.89
2018-05-31T17:54:29.045Z,52.21
2018-05-31T17:56:58.320Z,52.09
2018-05-31T17:59:28.231Z,52.37
2018-05-31T18:01:57.806Z,53.03
2018-05-31T18:04:26.717Z,52.79
2018-05-31T18:06:55.474Z,53.39
2018-05-31T18:09:24.491Z,53.41
2018-05-31T18:11:53.452Z,53.75
2018-05-31T18:14:23.445Z,53.72
2018-05-31T18:16:53.352Z,53.96
2018-05-31T18:19:22.871Z,54.97
2018-05-31T18:21:53.208Z,55.34
2018-05-31T18:24:22.940Z,55.58
2018-05-31T18:26:51.805Z,55.72
2018-05-31T18:29:21.664Z,55.82
2018-05-31T18:31:51.300Z,55.95
2018-05-31T18:34:20.974Z,55.98
2018-05-31T18:36:50.056Z,56.16
2018-05-31T18:39:18.945Z,56.93
2018-05-31T18:41:47.883Z,56.99
2018-05-31T18:44:16.738Z,57.74
2018-05-31T18:46:45.600Z,58.09
2018-05-31T18:49:16.070Z,58.71
2018-05-31T18:51:46.429Z,58.71
2018-05-31T18:54:15.482Z,59.61
2018-05-31T18:56:44.202Z,61.72
2018-05-31T18:59:13.360Z,62.23
2018-05-31T19:01:42.944Z,63.30
2018-05-31T19:04:12.627Z,64.32
2018-05-31T19:06:41.399Z,64.77
2018-05-31T19:09:15.598Z,65.76
2018-05-31T19:11:45.463Z,65.84
2018-05-31T19:14:14.776Z,66.14
2018-05-31T19:16:44.479Z,66.44
2018-05-31T19:19:19.459Z,67.44
2018-05-31T19:21:48.279Z,68.35
2018-05-31T19:24:22.747Z,68.81
2018-05-31T19:26:51.892Z,69.22
2018-05-31T19:29:21.180Z,69.18
2018-05-31T19:31:50.267Z,69.45
2018-05-31T19:34:20.217Z,69.94
2018-05-31T19:36:54.915Z,72.66
2018-05-31T19:39:23.625Z,72.58
2018-05-31T19:41:52.289Z,72.38
2018-05-31T19:44:26.751Z,71.18
2018-05-31T19:46:58.963Z,71.11
2018-05-31T19:49:29.118Z,70.84
2018-05-31T19:52:04.677Z,70.59
2018-05-31T19:54:34.709Z,70.65
2018-05-31T19:57:03.729Z,70.91
2018-05-31T19:59:38.061Z,71.01
2018-05-31T20:02:13.670Z,71.19
2018-05-31T20:04:42.640Z,71.72
2018-05-31T20:07:11.550Z,71.65
2018-05-31T20:09:41.665Z,72.41
2018-05-31T20:12:11.015Z,72.50
2018-05-31T20:14:40.379Z,74.70
2018-05-31T20:17:09.355Z,74.59
2018-05-31T20:19:38.368Z,75.17
2018-05-31T20:22:07.322Z,75.02
2018-05-31T20:24:36.614Z,74.26
2018-05-31T20:27:05.510Z,73.83
2018-05-31T20:29:35.073Z,73.86
2018-05-31T20:32:03.956Z,73.80
2018-05-31T20:34:33.016Z,74.51
2018-05-31T20:37:02.058Z,75.02
2018-05-31T20:39:31.007Z,75.83
2018-05-31T20:42:00.546Z,76.44
2018-05-31T20:44:30.467Z,76.48
2018-05-31T20:46:59.429Z,76.46
2018-05-31T20:49:29.382Z,76.13
2018-05-31T20:51:58.924Z,75.68
2018-05-31T20:54:28.060Z,75.71
2018-05-31T20:56:57.551Z,75.82
2018-05-31T20:59:27.663Z,75.97
2018-05-31T21:01:56.976Z,76.12
2018-05-31T21:04:26.033Z,76.24
2018-05-31T21:06:56.300Z,76.58
2018-05-31T21:09:25.735Z,76.92
2018-05-31T21:11:55.939Z,76.91
2018-05-31T21:14:25.289Z,77.17
2018-05-31T21:16:54.296Z,77.15
2018-05-31T21:19:23.339Z,77.31
2018-05-31T21:21:53.054Z,77.78
2018-05-31T21:24:23.214Z,77.79
2018-05-31T21:26:52.289Z,77.47
2018-05-31T21:29:21.009Z,77.44
2018-05-31T21:31:50.092Z,77.49
2018-05-31T21:34:18.865Z,77.41
2018-05-31T21:36:48.976Z,77.77
2018-05-31T21:39:18.962Z,78.04
2018-05-31T21:41:48.868Z,78.14
2018-05-31T21:44:18.082Z,78.22
2018-05-31T21:46:46.758Z,78.17
2018-05-31T21:49:16.827Z,78.02
2018-05-31T21:51:45.616Z,77.80
2018-05-31T21:54:14.441Z,77.45
2018-05-31T21:56:43.493Z,77.45
2018-05-31T21:59:13.539Z,77.31
2018-05-31T22:01:42.305Z,77.34
2018-05-31T22:04:12.153Z,77.92
2018-05-31T22:06:42.323Z,78.44
2018-05-31T22:09:12.552Z,78.89
2018-05-31T22:11:41.715Z,79.95
2018-05-31T22:14:10.531Z,80.07
2018-05-31T22:16:39.766Z,79.42
2018-05-31T22:19:08.574Z,79.22
2018-05-31T22:21:37.838Z,79.24
2018-05-31T22:24:06.770Z,78.80
2018-05-31T22:26:36.602Z,78.33
2018-05-31T22:29:06.662Z,78.17
2018-05-31T22:31:35.597Z,78.10
2018-05-31T22:34:05.790Z,77.99
2018-05-31T22:36:36.765Z,78.31
2018-05-31T22:39:06.331Z,78.48
2018-05-31T22:41:35.133Z,78.27
2018-05-31T22:44:03.804Z,78.60
2018-05-31T22:46:33.566Z,78.14
2018-05-31T22:49:02.359Z,78.02
2018-05-31T22:51:32.254Z,77.79
2018-05-31T22:54:02.051Z,77.57
2018-05-31T22:56:30.855Z,77.45
2018-05-31T22:58:59.564Z,77.55
2018-05-31T23:01:28.243Z,77.20
2018-05-31T23:03:58.689Z,77.11
2018-05-31T23:06:28.762Z,76.91
2018-05-31T23:08:57.566Z,77.02
2018-05-31T23:11:26.369Z,77.34
2018-05-31T23:13:55.184Z,77.00
2018-05-31T23:16:24.775Z,76.87
2018-05-31T23:18:53.623Z,76.01
2018-05-31T23:21:22.391Z,76.19
2018-05-31T23:23:52.163Z,76.10
2018-05-31T23:26:20.975Z,76.04
2018-05-31T23:28:50.274Z,76.75
2018-05-31T23:31:19.821Z,76.72
2018-05-31T23:33:49.633Z,76.74
2018-05-31T23:36:19.108Z,77.24
2018-05-31T23:38:47.891Z,77.13
2018-05-31T23:41:16.433Z,76.97
2018-05-31T23:43:45.203Z,76.74
2018-05-31T23:46:14.320Z,77.10
2018-05-31T23:48:43.099Z,77.24
2018-05-31T23:51:12.553Z,77.05
2018-05-31T23:53:41.339Z,76.82
2018-05-31T23:56:10.720Z,76.80
2018-05-31T23:58:39.495Z,76.72
